Hlavní strana
METAR-TAF:

METAR-TAF

Letiště :

Air Force Base Waterkloof

Waterkloof, Jihoafrická republika

zeměpisná šířka: 25-50S, zeměpisná délka: 028-13E, výška: 1498 m

Aktuální stav počasí

Zpráva byla vytvořena před 1 hodinou a 22 minutami, v 13:00 UTC
Severozápadní vítr 10 kt
Teplota
Tlak 1022 hPa

METAR: FAWK 201300Z AUTO 32010KT //// // ////// ///// Q1022

Čas: 16:22 (14:22 UTC)

Předpověď počasí

Zpráva byla vytvořena před 3 hodinami a 8 minutami, v 11:14 UTC
Předpověď platná od 20 v 10 UTC do 20 v 18 UTC
Severoseverozápadní vítr 6 kt
Viditelnost 10 km a více
Žádná oblačnost pod 1500 m, nevyskytují se cumulonimby.
Změna
od 20 v 14 UTC do 20 v 16 UTC
vítr z různých směrů 3 kt

TAF: FAWK 201114Z 2010/2018 33006KT CAVOK BECMG 2014/2016 VRB03KT TX25/2013Z TN19/2018Z

Stav a předpovědi počasí z více než 4 000 letišť (zprávy METAR a TAF).

Červené a žluté tečky na mapě představují dostupné meteorologické stanice.

Když kurzor umístíte na tečku, zobrazí se název stanice.

Pak kliknutím zobrazíte stav a předpověď počasí.

Chcete-li změnit mapu, kliknutím na zelené tlačítko se znaménkem +mapu přiblížíte, kliknutím na zelené tlačítko se znaménkem – mapu oddálíte a kliknutím na zelené šipky přejdete na sousední mapy.


METAR-TAF: